Sentinel — D5FA7 — position and weather

sailwx.info

Track history (hours):
 
Tides and Currents Weather Stations Pressure Air Temp Water Temp Dewpoint Dewpoint Depression Visibility Wind Speed Wind Dir Waves Ship Positions

Sentinel

Last reported at 2019-Jan-18 08:25 UTC. Time now 2019-Jan-19 11:16 UTC.
Position N 49°37' W 003°57'.

Length 199 m; draft 6.9 m.

Type: Cargo ship. MMSI: 635961385.

Date/timePositionNaut miles runAvg speedWind from/ knotsBaromVisibWave heightAir tempDewpointWater temp
2019-Jan-18 08:25N 49°37' W 003°57'410.9
2019-Jan-18 08:00N 49°38' W 003°51'510.5
2019-Jan-18 07:30N 49°42' W 003°45'510.4
2019-Jan-18 07:00N 49°45' W 003°38'510.3
2019-Jan-18 06:30N 49°48' W 003°32'510.0
2019-Jan-18 06:00N 49°50' W 003°25'510.0
2019-Jan-18 05:30N 49°51' W 003°18'5 9.6
2019-Jan-18 05:00N 49°54' W 003°11'5 9.5
2019-Jan-18 04:30N 49°56' W 003°05'5 9.4
2019-Jan-18 04:00N 49°59' W 002°59'5 9.7
2019-Jan-18 03:30N 49°60' W 002°51'5 9.9
2019-Jan-18 03:00N 50°01' W 002°44'710.2
2019-Jan-18 02:18N 50°03' W 002°33'710.8
2019-Jan-18 01:42N 50°05' W 002°23'4012.8
2019-Jan-17 22:35N 50°16' W 001°23'513.5
2019-Jan-17 22:13N 50°17' W 001°16'1812.9
2019-Jan-17 20:51N 50°21' W 000°49'811.7
2019-Jan-17 20:08N 50°24' W 000°36'4110.3
2019-Jan-17 16:09N 50°35' E 000°26'210.3
2019-Jan-17 16:00N 50°35' E 000°28'510.5
2019-Jan-17 15:30N 50°37' E 000°35'611.3
2019-Jan-17 15:00N 50°40' E 000°43'611.8
2019-Jan-17 14:30N 50°44' E 000°50'612.1
2019-Jan-17 14:00N 50°47' E 000°58'612.2
2019-Jan-17 13:30N 50°51' E 001°05'612.3
2019-Jan-17 13:00N 50°55' E 001°12'612.2
2019-Jan-17 12:30N 50°60' E 001°19'611.8
2019-Jan-17 12:00N 51°04' E 001°26'611.2
2019-Jan-17 11:30N 51°07' E 001°33'510.6
2019-Jan-17 11:00N 51°10' E 001°40'510.3
2019-Jan-17 10:30N 51°14' E 001°46'510.2
2019-Jan-17 10:00N 51°18' E 001°49'510.2
2019-Jan-17 09:30N 51°23' E 001°53'510.2
2019-Jan-17 09:00N 51°27' E 001°57'510.4
2019-Jan-17 08:30N 51°31' E 002°03'510.6
2019-Jan-17 08:00N 51°35' E 002°09'510.9
2019-Jan-17 07:30N 51°39' E 002°14'611.1
2019-Jan-17 06:57N 51°44' E 002°21'611.4
2019-Jan-17 06:26N 51°48' E 002°27'1311.3
2019-Jan-17 05:15N 52°01' E 002°36'610.5
2019-Jan-17 04:40N 52°07' E 002°36'212.3
2019-Jan-17 04:30N 52°09' E 002°37'611.7
2019-Jan-17 04:00N 52°14' E 002°40'1211.5
2019-Jan-17 02:58N 52°25' E 002°49'610.9
2019-Jan-17 02:23N 52°30' E 002°54'287 8.9
2019-Jan-15 18:17N 56°33' E 007°19'11 9.8
2019-Jan-15 17:13N 56°41' E 007°31'5 9.9
2019-Jan-15 16:42N 56°45' E 007°36'2 9.9
2019-Jan-15 16:29N 56°47' E 007°38'6 9.6
2019-Jan-15 15:51N 56°52' E 007°45'9 9.4
2019-Jan-15 14:52N 56°59' E 007°55'4 9.2
2019-Jan-15 14:26N 57°03' E 007°60'4 9.1
2019-Jan-15 13:58N 57°06' E 008°04'4 9.0
2019-Jan-15 13:28N 57°09' E 008°09'4 8.8
2019-Jan-15 12:59N 57°13' E 008°14'4 8.7
2019-Jan-15 12:30N 57°16' E 008°18'4 8.3
2019-Jan-15 12:00N 57°19' E 008°24'4 8.3
2019-Jan-15 11:30N 57°22' E 008°30'4 8.5
2019-Jan-15 11:00N 57°25' E 008°36'4 8.9
2019-Jan-15 10:30N 57°28' E 008°42'5 9.0
2019-Jan-15 10:00N 57°30' E 008°48'5 9.6
2019-Jan-15 09:30N 57°33' E 008°56'510.0
2019-Jan-15 08:59N 57°36' E 009°04'510.3
2019-Jan-15 08:29N 57°39' E 009°12'510.4
2019-Jan-15 07:59N 57°41' E 009°21'1410.5
2019-Jan-15 06:38N 57°44' E 009°47'210.5
2019-Jan-15 06:24N 57°44' E 009°51'2210.6
2019-Jan-15 04:18N 57°49' E 010°32'310.1
2019-Jan-15 03:59N 57°49' E 010°38'4 8.2
2019-Jan-15 03:30N 57°48' E 010°45'510.0
2019-Jan-15 03:00N 57°45' E 010°52'5 9.9
2019-Jan-15 02:30N 57°42' E 010°59'510.0
2019-Jan-15 02:00N 57°38' E 011°06'510.0
2019-Jan-15 01:30N 57°35' E 011°13'510.0
2019-Jan-15 01:00N 57°32' E 011°19'5 9.7
2019-Jan-15 00:30N 57°28' E 011°26'5 9.2
2019-Jan-15 00:00N 57°24' E 011°29'5 9.4
2019-Jan-14 23:30N 57°19' E 011°32'5 9.5
2019-Jan-14 23:00N 57°15' E 011°35'4 9.0
2019-Jan-14 22:30N 57°11' E 011°38'5 9.1
2019-Jan-14 22:00N 57°06' E 011°40'5 9.4
2019-Jan-14 21:30N 57°02' E 011°43'5 9.0
2019-Jan-14 20:59N 56°58' E 011°46'99 8.3
2019-Jan-14 08:59N 55°21' E 011°02'8 8.0
2019-Jan-14 07:58N 55°14' E 011°06'4 9.3
2019-Jan-14 07:30N 55°10' E 011°01'5 9.0
2019-Jan-14 07:00N 55°06' E 010°59'5 9.1
2019-Jan-14 06:30N 55°01' E 010°59'4 8.8
2019-Jan-14 06:00N 54°57' E 010°56'4 8.4
2019-Jan-14 05:30N 54°54' E 010°51'4 7.3
2019-Jan-14 05:00N 54°51' E 010°50'4 8.2
2019-Jan-14 04:30N 54°47' E 010°49'4 8.4
2019-Jan-14 04:00N 54°43' E 010°47'4 8.0
2019-Jan-14 03:30N 54°39' E 010°51'5 9.1
2019-Jan-14 03:00N 54°37' E 010°57'4 8.6
2019-Jan-14 02:30N 54°36' E 011°05'4 8.6
2019-Jan-14 02:00N 54°35' E 011°12'5 9.2
2019-Jan-14 01:30N 54°33' E 011°19'5 9.4
2019-Jan-14 01:00N 54°31' E 011°26'5 9.8
2019-Jan-14 00:30N 54°29' E 011°34'5 9.7
2019-Jan-14 00:00N 54°27' E 011°42'5 9.5
2019-Jan-13 23:30N 54°26' E 011°49'99 8.9
2019-Jan-13 12:20N 55°15' E 014°19'3110.3
2019-Jan-13 09:20N 55°34' E 015°03'310.7
2019-Jan-13 09:00N 55°35' E 015°09'510.9
2019-Jan-13 08:30N 55°36' E 015°18'611.0
2019-Jan-13 08:00N 55°38' E 015°27'511.0
2019-Jan-13 07:30N 55°40' E 015°36'611.0
2019-Jan-13 07:00N 55°42' E 015°46'611.1
2019-Jan-13 06:30N 55°43' E 015°55'611.1
2019-Jan-13 06:00N 55°45' E 016°05'511.0
2019-Jan-13 05:30N 55°46' E 016°14'611.0
2019-Jan-13 05:00N 55°47' E 016°23'611.0
2019-Jan-13 04:30N 55°49' E 016°33'611.1
2019-Jan-13 04:00N 55°50' E 016°43'611.1
2019-Jan-13 03:29N 55°52' E 016°53'  
Track history (hours):
 
Tides and Currents Weather Stations Pressure Air Temp Water Temp Dewpoint Dewpoint Depression Visibility Wind Speed Wind Dir Waves Ship Positions

Sentinel

Last reported at 2019-Jan-18 08:25 UTC. Time now 2019-Jan-19 11:16 UTC.
Position N 49°37' W 003°57'.

Length 199 m; draft 6.9 m.

Type: Cargo ship. MMSI: 635961385.

Date/timePositionNaut miles runAvg speedWind from/ knotsBaromVisibWave heightAir tempDewpointWater temp
2019-Jan-18 08:25N 49°37' W 003°57'410.9
2019-Jan-18 08:00N 49°38' W 003°51'510.5
2019-Jan-18 07:30N 49°42' W 003°45'510.4
2019-Jan-18 07:00N 49°45' W 003°38'510.3
2019-Jan-18 06:30N 49°48' W 003°32'510.0
2019-Jan-18 06:00N 49°50' W 003°25'510.0
2019-Jan-18 05:30N 49°51' W 003°18'5 9.6
2019-Jan-18 05:00N 49°54' W 003°11'5 9.5
2019-Jan-18 04:30N 49°56' W 003°05'5 9.4
2019-Jan-18 04:00N 49°59' W 002°59'5 9.7
2019-Jan-18 03:30N 49°60' W 002°51'5 9.9
2019-Jan-18 03:00N 50°01' W 002°44'710.2
2019-Jan-18 02:18N 50°03' W 002°33'710.8
2019-Jan-18 01:42N 50°05' W 002°23'4012.8
2019-Jan-17 22:35N 50°16' W 001°23'513.5
2019-Jan-17 22:13N 50°17' W 001°16'1812.9
2019-Jan-17 20:51N 50°21' W 000°49'811.7
2019-Jan-17 20:08N 50°24' W 000°36'4110.3
2019-Jan-17 16:09N 50°35' E 000°26'210.3
2019-Jan-17 16:00N 50°35' E 000°28'510.5
2019-Jan-17 15:30N 50°37' E 000°35'611.3
2019-Jan-17 15:00N 50°40' E 000°43'611.8
2019-Jan-17 14:30N 50°44' E 000°50'612.1
2019-Jan-17 14:00N 50°47' E 000°58'612.2
2019-Jan-17 13:30N 50°51' E 001°05'612.3
2019-Jan-17 13:00N 50°55' E 001°12'612.2
2019-Jan-17 12:30N 50°60' E 001°19'611.8
2019-Jan-17 12:00N 51°04' E 001°26'611.2
2019-Jan-17 11:30N 51°07' E 001°33'510.6
2019-Jan-17 11:00N 51°10' E 001°40'510.3
2019-Jan-17 10:30N 51°14' E 001°46'510.2
2019-Jan-17 10:00N 51°18' E 001°49'510.2
2019-Jan-17 09:30N 51°23' E 001°53'510.2
2019-Jan-17 09:00N 51°27' E 001°57'510.4
2019-Jan-17 08:30N 51°31' E 002°03'510.6
2019-Jan-17 08:00N 51°35' E 002°09'510.9
2019-Jan-17 07:30N 51°39' E 002°14'611.1
2019-Jan-17 06:57N 51°44' E 002°21'611.4
2019-Jan-17 06:26N 51°48' E 002°27'1311.3
2019-Jan-17 05:15N 52°01' E 002°36'610.5
2019-Jan-17 04:40N 52°07' E 002°36'212.3
2019-Jan-17 04:30N 52°09' E 002°37'611.7
2019-Jan-17 04:00N 52°14' E 002°40'1211.5
2019-Jan-17 02:58N 52°25' E 002°49'610.9
2019-Jan-17 02:23N 52°30' E 002°54'287 8.9
2019-Jan-15 18:17N 56°33' E 007°19'11 9.8
2019-Jan-15 17:13N 56°41' E 007°31'5 9.9
2019-Jan-15 16:42N 56°45' E 007°36'2 9.9
2019-Jan-15 16:29N 56°47' E 007°38'6 9.6
2019-Jan-15 15:51N 56°52' E 007°45'9 9.4
2019-Jan-15 14:52N 56°59' E 007°55'4 9.2
2019-Jan-15 14:26N 57°03' E 007°60'4 9.1
2019-Jan-15 13:58N 57°06' E 008°04'4 9.0
2019-Jan-15 13:28N 57°09' E 008°09'4 8.8
2019-Jan-15 12:59N 57°13' E 008°14'4 8.7
2019-Jan-15 12:30N 57°16' E 008°18'4 8.3
2019-Jan-15 12:00N 57°19' E 008°24'4 8.3
2019-Jan-15 11:30N 57°22' E 008°30'4 8.5
2019-Jan-15 11:00N 57°25' E 008°36'4 8.9
2019-Jan-15 10:30N 57°28' E 008°42'5 9.0
2019-Jan-15 10:00N 57°30' E 008°48'5 9.6
2019-Jan-15 09:30N 57°33' E 008°56'510.0
2019-Jan-15 08:59N 57°36' E 009°04'510.3
2019-Jan-15 08:29N 57°39' E 009°12'510.4
2019-Jan-15 07:59N 57°41' E 009°21'1410.5
2019-Jan-15 06:38N 57°44' E 009°47'210.5
2019-Jan-15 06:24N 57°44' E 009°51'2210.6
2019-Jan-15 04:18N 57°49' E 010°32'310.1
2019-Jan-15 03:59N 57°49' E 010°38'4 8.2
2019-Jan-15 03:30N 57°48' E 010°45'510.0
2019-Jan-15 03:00N 57°45' E 010°52'5 9.9
2019-Jan-15 02:30N 57°42' E 010°59'510.0
2019-Jan-15 02:00N 57°38' E 011°06'510.0
2019-Jan-15 01:30N 57°35' E 011°13'510.0
2019-Jan-15 01:00N 57°32' E 011°19'5 9.7
2019-Jan-15 00:30N 57°28' E 011°26'5 9.2
2019-Jan-15 00:00N 57°24' E 011°29'5 9.4
2019-Jan-14 23:30N 57°19' E 011°32'5 9.5
2019-Jan-14 23:00N 57°15' E 011°35'4 9.0
2019-Jan-14 22:30N 57°11' E 011°38'5 9.1
2019-Jan-14 22:00N 57°06' E 011°40'5 9.4
2019-Jan-14 21:30N 57°02' E 011°43'5 9.0
2019-Jan-14 20:59N 56°58' E 011°46'99 8.3
2019-Jan-14 08:59N 55°21' E 011°02'8 8.0
2019-Jan-14 07:58N 55°14' E 011°06'4 9.3
2019-Jan-14 07:30N 55°10' E 011°01'5 9.0
2019-Jan-14 07:00N 55°06' E 010°59'5 9.1
2019-Jan-14 06:30N 55°01' E 010°59'4 8.8
2019-Jan-14 06:00N 54°57' E 010°56'4 8.4
2019-Jan-14 05:30N 54°54' E 010°51'4 7.3
2019-Jan-14 05:00N 54°51' E 010°50'4 8.2
2019-Jan-14 04:30N 54°47' E 010°49'4 8.4
2019-Jan-14 04:00N 54°43' E 010°47'4 8.0
2019-Jan-14 03:30N 54°39' E 010°51'5 9.1
2019-Jan-14 03:00N 54°37' E 010°57'4 8.6
2019-Jan-14 02:30N 54°36' E 011°05'4 8.6
2019-Jan-14 02:00N 54°35' E 011°12'5 9.2
2019-Jan-14 01:30N 54°33' E 011°19'5 9.4
2019-Jan-14 01:00N 54°31' E 011°26'5 9.8
2019-Jan-14 00:30N 54°29' E 011°34'5 9.7
2019-Jan-14 00:00N 54°27' E 011°42'5 9.5
2019-Jan-13 23:30N 54°26' E 011°49'99 8.9
2019-Jan-13 12:20N 55°15' E 014°19'3110.3
2019-Jan-13 09:20N 55°34' E 015°03'310.7
2019-Jan-13 09:00N 55°35' E 015°09'510.9
2019-Jan-13 08:30N 55°36' E 015°18'611.0
2019-Jan-13 08:00N 55°38' E 015°27'511.0
2019-Jan-13 07:30N 55°40' E 015°36'611.0
2019-Jan-13 07:00N 55°42' E 015°46'611.1
2019-Jan-13 06:30N 55°43' E 015°55'611.1
2019-Jan-13 06:00N 55°45' E 016°05'511.0
2019-Jan-13 05:30N 55°46' E 016°14'611.0
2019-Jan-13 05:00N 55°47' E 016°23'611.0
2019-Jan-13 04:30N 55°49' E 016°33'611.1
2019-Jan-13 04:00N 55°50' E 016°43'611.1
2019-Jan-13 03:29N 55°52' E 016°53'  

Dump ship's entire track history